createdAt,value
2018-09-20T00:01:24.144Z,8.60
2018-09-20T00:03:53.842Z,9.10
2018-09-20T00:06:23.519Z,8.80
2018-09-20T00:08:53.211Z,8.33
2018-09-20T00:11:22.891Z,9.10
2018-09-20T00:13:52.738Z,8.33
2018-09-20T00:16:22.427Z,7.57
2018-09-20T00:18:52.111Z,8.03
2018-09-20T00:21:21.778Z,11.60
2018-09-20T00:23:51.505Z,8.20
2018-09-20T00:26:21.198Z,7.90
2018-09-20T00:28:50.921Z,8.00
2018-09-20T00:31:20.675Z,14.63
2018-09-20T00:33:50.371Z,8.37
2018-09-20T00:36:20.099Z,7.70
2018-09-20T00:38:49.804Z,9.57
2018-09-20T00:41:19.531Z,7.37
2018-09-20T00:43:49.227Z,7.90
2018-09-20T00:46:18.974Z,8.40
2018-09-20T00:48:48.691Z,7.30
2018-09-20T00:51:18.406Z,10.13
2018-09-20T00:53:48.127Z,8.07
2018-09-20T00:56:17.834Z,9.53
2018-09-20T00:58:47.558Z,7.67
2018-09-20T01:01:17.243Z,8.23
2018-09-20T01:03:47.091Z,8.20
2018-09-20T01:06:16.804Z,7.57
2018-09-20T01:08:46.454Z,8.30
2018-09-20T01:11:16.251Z,7.50
2018-09-20T01:13:45.972Z,9.30
2018-09-20T01:16:15.671Z,8.17
2018-09-20T01:18:45.346Z,6.90
2018-09-20T01:21:15.986Z,7.77
2018-09-20T01:23:45.680Z,11.87
2018-09-20T01:26:15.366Z,7.90
2018-09-20T01:28:45.071Z,6.70
2018-09-20T01:31:14.757Z,7.60
2018-09-20T01:33:44.522Z,7.80
2018-09-20T01:36:14.209Z,7.17
2018-09-20T01:38:43.910Z,8.43
2018-09-20T01:41:13.616Z,6.77
2018-09-20T01:43:43.323Z,7.73
2018-09-20T01:46:12.998Z,7.03
2018-09-20T01:48:42.722Z,7.27
2018-09-20T01:51:12.450Z,7.63
2018-09-20T01:53:42.147Z,7.23
2018-09-20T01:56:14.987Z,6.97
2018-09-20T01:58:45.943Z,8.30
2018-09-20T02:01:15.715Z,6.83
2018-09-20T02:03:45.416Z,7.13
2018-09-20T02:06:15.109Z,14.03
2018-09-20T02:08:44.906Z,7.60
2018-09-20T02:11:14.656Z,6.50
2018-09-20T02:13:44.438Z,6.70
2018-09-20T02:16:14.131Z,7.30
2018-09-20T02:18:43.813Z,6.90
2018-09-20T02:21:13.577Z,10.17
2018-09-20T02:23:43.246Z,6.60
2018-09-20T02:26:13.057Z,6.53
2018-09-20T02:31:35.496Z,6.50
2018-09-20T02:34:05.214Z,6.80
2018-09-20T02:36:34.912Z,6.50
2018-09-20T02:39:06.580Z,9.17
2018-09-20T02:41:36.366Z,6.03
2018-09-20T02:44:06.054Z,6.80
2018-09-20T02:46:35.788Z,7.00
2018-09-20T02:49:05.696Z,7.47
2018-09-20T02:51:35.562Z,6.80
2018-09-20T02:54:05.265Z,6.80
2018-09-20T02:56:35.030Z,7.00
2018-09-20T02:59:04.780Z,6.20
2018-09-20T03:01:34.431Z,6.90
2018-09-20T03:04:04.142Z,7.23
2018-09-20T03:06:33.827Z,10.27
2018-09-20T03:09:03.603Z,8.33
2018-09-20T03:11:33.314Z,6.20
2018-09-20T03:14:02.998Z,8.93
2018-09-20T03:16:32.702Z,7.60
2018-09-20T03:19:02.414Z,7.00
2018-09-20T03:21:32.159Z,7.00
2018-09-20T03:24:01.887Z,6.27
2018-09-20T03:26:31.630Z,6.57
2018-09-20T03:29:01.400Z,6.40
2018-09-20T03:31:31.099Z,7.13
2018-09-20T03:34:00.807Z,6.90
2018-09-20T03:36:30.489Z,6.50
2018-09-20T03:39:00.175Z,6.70
2018-09-20T03:41:29.890Z,8.37
2018-09-20T03:43:59.594Z,6.40
2018-09-20T03:46:29.267Z,6.37
2018-09-20T03:48:58.963Z,6.67
2018-09-20T03:51:28.637Z,6.90
2018-09-20T03:53:58.395Z,6.70
2018-09-20T03:56:28.090Z,6.70
2018-09-20T03:58:57.802Z,7.37
2018-09-20T04:01:27.518Z,8.70
2018-09-20T04:03:57.228Z,6.77
2018-09-20T04:06:26.923Z,7.23
2018-09-20T04:08:56.655Z,12.37
2018-09-20T04:11:26.354Z,6.20
2018-09-20T04:13:56.123Z,6.40
2018-09-20T04:16:25.801Z,6.20
2018-09-20T04:18:55.503Z,5.80
2018-09-20T04:21:29.622Z,8.27
2018-09-20T04:24:00.157Z,5.93
2018-09-20T04:26:30.487Z,6.20
2018-09-20T04:29:00.514Z,5.97
2018-09-20T04:31:30.799Z,7.13
2018-09-20T04:34:01.552Z,6.77
2018-09-20T04:36:31.521Z,6.13
2018-09-20T04:39:01.211Z,7.13
2018-09-20T04:41:30.909Z,7.43
2018-09-20T04:44:00.643Z,6.33
2018-09-20T04:46:30.338Z,7.00
2018-09-20T04:49:00.037Z,9.07
2018-09-20T04:51:29.746Z,6.50
2018-09-20T04:53:59.438Z,6.70
2018-09-20T04:56:29.148Z,8.00
2018-09-20T04:58:58.854Z,6.73
2018-09-20T05:01:28.547Z,7.50
2018-09-20T05:03:58.236Z,6.50
2018-09-20T05:06:27.978Z,6.30
2018-09-20T05:08:57.677Z,6.80
2018-09-20T05:11:27.407Z,9.13
2018-09-20T05:13:57.136Z,6.80
2018-09-20T05:16:26.854Z,6.63
2018-09-20T05:18:56.563Z,6.83
2018-09-20T05:21:26.296Z,7.13
2018-09-20T05:23:55.980Z,6.57
2018-09-20T05:26:25.686Z,6.43
2018-09-20T05:28:55.400Z,5.63
2018-09-20T05:31:25.124Z,7.60
2018-09-20T05:33:54.863Z,6.50
2018-09-20T05:36:24.570Z,6.47
2018-09-20T05:38:54.291Z,7.50
2018-09-20T05:41:24.044Z,6.40
2018-09-20T05:43:54.087Z,5.90
2018-09-20T05:46:23.777Z,6.40
2018-09-20T05:48:53.442Z,5.80
2018-09-20T05:51:23.175Z,6.97
2018-09-20T05:53:52.884Z,7.43
2018-09-20T05:56:22.610Z,6.13
2018-09-20T05:58:52.313Z,6.70
2018-09-20T06:01:22.035Z,7.80
2018-09-20T06:03:51.857Z,5.93
2018-09-20T06:06:21.596Z,6.07
2018-09-20T06:08:51.415Z,5.80
2018-09-20T06:11:21.187Z,6.30
2018-09-20T06:13:51.154Z,8.30
2018-09-20T06:16:20.906Z,6.10
2018-09-20T06:18:50.616Z,6.57
2018-09-20T06:21:20.339Z,7.40
2018-09-20T06:23:50.059Z,6.27
2018-09-20T06:26:19.791Z,6.77
2018-09-20T06:28:49.506Z,6.80
2018-09-20T06:31:19.375Z,6.27
2018-09-20T06:33:49.090Z,6.50
2018-09-20T06:36:18.769Z,7.10
2018-09-20T06:38:48.528Z,6.73
2018-09-20T06:41:18.310Z,7.73
2018-09-20T06:43:48.008Z,7.20
2018-09-20T06:46:17.721Z,8.07
2018-09-20T06:48:47.547Z,6.87
2018-09-20T06:51:17.331Z,7.00
2018-09-20T06:53:47.035Z,7.93
2018-09-20T06:56:16.724Z,5.70
2018-09-20T06:58:46.413Z,6.80
2018-09-20T07:01:16.221Z,6.03
2018-09-20T07:03:45.930Z,5.53
2018-09-20T07:06:15.704Z,8.00
2018-09-20T07:08:45.422Z,7.77
2018-09-20T07:11:15.138Z,8.07
2018-09-20T07:13:44.907Z,5.87
2018-09-20T07:16:14.599Z,6.40
2018-09-20T07:18:44.279Z,7.23
2018-09-20T07:21:14.040Z,5.40
2018-09-20T07:23:43.716Z,9.80
2018-09-20T07:26:13.418Z,5.60
2018-09-20T07:28:43.131Z,6.07
2018-09-20T07:31:12.842Z,4.80
2018-09-20T07:33:42.563Z,6.43
2018-09-20T07:36:12.283Z,6.23
2018-09-20T07:38:42.062Z,5.03
2018-09-20T07:41:12.401Z,5.13
2018-09-20T07:43:42.120Z,5.90
2018-09-20T07:46:11.801Z,5.80
2018-09-20T07:48:41.548Z,6.30
2018-09-20T07:51:11.258Z,5.47
2018-09-20T07:53:40.993Z,6.20
2018-09-20T07:56:10.677Z,7.10
2018-09-20T07:58:40.449Z,7.60
2018-09-20T08:01:10.139Z,8.47
2018-09-20T08:03:39.862Z,6.63
2018-09-20T08:06:09.590Z,6.00
2018-09-20T08:08:39.322Z,8.90
2018-09-20T08:11:09.050Z,6.40
2018-09-20T08:13:38.799Z,13.10
2018-09-20T08:16:08.744Z,9.03
2018-09-20T08:18:38.557Z,5.90
2018-09-20T08:21:08.410Z,4.93
2018-09-20T08:23:38.125Z,5.10
2018-09-20T08:26:07.978Z,5.47
2018-09-20T08:28:37.745Z,7.03
2018-09-20T08:31:08.141Z,6.80
2018-09-20T08:33:37.874Z,4.60
2018-09-20T08:36:07.587Z,5.03
2018-09-20T08:38:37.352Z,9.53
2018-09-20T08:41:07.111Z,4.90
2018-09-20T08:43:36.793Z,6.50
2018-09-20T08:46:06.527Z,5.50
2018-09-20T08:48:36.188Z,4.90
2018-09-20T08:51:06.001Z,5.97
2018-09-20T08:53:35.690Z,4.97
2018-09-20T08:56:05.418Z,4.90
2018-09-20T08:58:35.126Z,4.90
2018-09-20T09:01:05.150Z,5.43
2018-09-20T09:03:34.858Z,5.10
2018-09-20T09:06:04.562Z,5.10
2018-09-20T09:08:34.274Z,4.60
2018-09-20T09:11:03.987Z,6.50
2018-09-20T09:13:33.683Z,5.63
2018-09-20T09:16:03.400Z,7.70
2018-09-20T09:18:33.111Z,6.37
2018-09-20T09:21:02.825Z,5.53
2018-09-20T09:23:32.557Z,5.63
2018-09-20T09:26:02.281Z,4.87
2018-09-20T09:28:32.103Z,7.80
2018-09-20T09:31:01.819Z,5.10
2018-09-20T09:33:31.938Z,4.90
2018-09-20T09:36:01.706Z,5.80
2018-09-20T09:38:31.410Z,5.27
2018-09-20T09:41:01.111Z,4.93
2018-09-20T09:43:30.834Z,5.30
2018-09-20T09:46:00.591Z,4.80
2018-09-20T09:48:30.351Z,4.60
2018-09-20T09:51:00.107Z,4.67
2018-09-20T09:53:29.918Z,4.77
2018-09-20T09:55:59.605Z,7.30
2018-09-20T09:58:29.338Z,4.93
2018-09-20T10:00:59.018Z,5.03
2018-09-20T10:03:28.732Z,4.60
2018-09-20T10:05:58.423Z,4.80
2018-09-20T10:08:28.174Z,5.63
2018-09-20T10:10:57.879Z,6.10
2018-09-20T10:13:27.627Z,4.80
2018-09-20T10:15:57.267Z,5.23
2018-09-20T10:18:27.003Z,6.00
2018-09-20T10:20:56.738Z,6.30
2018-09-20T10:23:26.526Z,5.40
2018-09-20T10:25:56.258Z,5.40
2018-09-20T10:28:25.995Z,4.87
2018-09-20T10:30:55.715Z,5.27
2018-09-20T10:33:27.062Z,5.30
2018-09-20T10:35:56.775Z,4.90
2018-09-20T10:38:26.471Z,4.77
2018-09-20T10:40:56.198Z,4.97
2018-09-20T10:43:26.128Z,4.77
2018-09-20T10:45:55.883Z,4.83
2018-09-20T10:48:25.607Z,5.03
2018-09-20T10:50:55.379Z,4.37
2018-09-20T10:53:25.085Z,6.53
2018-09-20T10:55:54.873Z,5.43
2018-09-20T10:58:24.579Z,5.53
2018-09-20T11:00:54.317Z,16.53
2018-09-20T11:03:24.370Z,8.10
2018-09-20T11:05:54.010Z,16.40
2018-09-20T11:08:23.828Z,11.20
2018-09-20T11:10:53.583Z,6.10
2018-09-20T11:13:23.415Z,3.97
2018-09-20T11:15:53.120Z,3.80
2018-09-20T11:18:23.263Z,4.40
2018-09-20T11:20:52.973Z,4.00
2018-09-20T11:23:22.686Z,4.37
2018-09-20T11:25:52.720Z,4.47
2018-09-20T11:28:22.399Z,5.37
2018-09-20T11:30:52.350Z,3.63
2018-09-20T11:33:22.082Z,4.07
2018-09-20T11:35:51.822Z,3.70
2018-09-20T11:38:21.518Z,3.63
2018-09-20T11:40:51.279Z,6.50
2018-09-20T11:43:21.038Z,3.23
2018-09-20T11:45:50.729Z,3.60
2018-09-20T11:48:20.496Z,3.80
2018-09-20T11:50:50.240Z,4.33
2018-09-20T11:53:19.984Z,3.93
2018-09-20T11:55:49.699Z,3.40
2018-09-20T11:58:19.460Z,3.20
2018-09-20T12:00:49.163Z,3.87
2018-09-20T12:03:18.898Z,3.30
2018-09-20T12:05:49.565Z,4.30
2018-09-20T12:08:19.274Z,3.70
2018-09-20T12:10:48.972Z,3.63
2018-09-20T12:13:18.869Z,4.03
2018-09-20T12:15:48.643Z,3.40
2018-09-20T12:18:18.350Z,4.53
2018-09-20T12:20:48.066Z,3.70
2018-09-20T12:23:17.814Z,4.10
2018-09-20T12:25:47.608Z,3.60
2018-09-20T12:28:17.302Z,3.80
2018-09-20T12:30:47.009Z,3.43
2018-09-20T12:33:16.793Z,4.07
2018-09-20T12:35:46.640Z,3.90
2018-09-20T12:38:16.277Z,3.10
2018-09-20T12:40:48.810Z,4.50
2018-09-20T12:43:18.725Z,3.80
2018-09-20T12:45:48.436Z,4.27
2018-09-20T12:48:18.216Z,4.15
2018-09-20T12:50:47.910Z,4.40
2018-09-20T12:53:17.702Z,4.00
2018-09-20T12:55:47.420Z,5.70
2018-09-20T12:58:17.186Z,3.63
2018-09-20T13:00:46.915Z,3.77
2018-09-20T13:03:16.819Z,3.70
2018-09-20T13:05:46.563Z,3.67
2018-09-20T13:08:16.280Z,3.90
2018-09-20T13:10:46.051Z,3.63
2018-09-20T13:13:15.754Z,3.47
2018-09-20T13:15:45.827Z,4.30
2018-09-20T13:18:15.787Z,4.37
2018-09-20T13:20:45.536Z,3.60
2018-09-20T13:23:15.682Z,3.80
2018-09-20T13:25:45.387Z,3.73
2018-09-20T13:28:15.147Z,4.10
2018-09-20T13:30:44.868Z,3.80
2018-09-20T13:33:14.618Z,3.90
2018-09-20T13:35:44.330Z,3.40
2018-09-20T13:38:14.031Z,6.00
2018-09-20T13:40:43.791Z,5.33
2018-09-20T13:43:13.513Z,3.83
2018-09-20T13:45:43.271Z,3.97
2018-09-20T13:48:12.999Z,7.40
2018-09-20T13:50:42.709Z,3.53
2018-09-20T13:53:12.465Z,3.57
2018-09-20T13:55:42.255Z,3.60
2018-09-20T13:58:11.958Z,3.57
2018-09-20T14:00:41.743Z,3.53
2018-09-20T14:03:11.455Z,4.17
2018-09-20T14:05:41.210Z,3.97
2018-09-20T14:08:11.870Z,3.77
2018-09-20T14:10:41.603Z,3.57
2018-09-20T14:13:11.314Z,5.90
2018-09-20T14:15:41.067Z,3.63
2018-09-20T14:18:10.840Z,3.30
2018-09-20T14:20:40.538Z,3.63
2018-09-20T14:23:10.258Z,3.40
2018-09-20T14:25:39.967Z,3.80
2018-09-20T14:28:09.703Z,5.17
2018-09-20T14:30:39.467Z,5.70
2018-09-20T14:33:09.169Z,4.90
2018-09-20T14:35:38.864Z,4.70
2018-09-20T14:38:08.572Z,4.00
2018-09-20T14:40:38.299Z,4.50
2018-09-20T14:43:08.029Z,4.53
2018-09-20T14:45:37.744Z,4.70
2018-09-20T14:48:07.547Z,5.00
2018-09-20T14:50:37.307Z,4.50
2018-09-20T14:53:07.018Z,4.80
2018-09-20T14:55:36.743Z,4.20
2018-09-20T14:58:06.536Z,5.13
2018-09-20T15:00:36.248Z,4.63
2018-09-20T15:03:06.015Z,4.73
2018-09-20T15:05:35.735Z,4.63
2018-09-20T15:08:05.549Z,4.70
2018-09-20T15:10:35.254Z,4.47
2018-09-20T15:13:04.975Z,9.27
2018-09-20T15:15:34.699Z,4.73
2018-09-20T15:18:04.443Z,4.70
2018-09-20T15:20:34.147Z,4.20
2018-09-20T15:23:03.864Z,4.17
2018-09-20T15:25:33.567Z,4.30
2018-09-20T15:28:03.332Z,3.90
2018-09-20T15:30:33.035Z,4.80
2018-09-20T15:33:02.790Z,4.13
2018-09-20T15:35:32.506Z,5.07
2018-09-20T15:38:02.273Z,4.10
2018-09-20T15:40:31.976Z,5.07
2018-09-20T15:43:01.747Z,4.10
2018-09-20T15:45:31.503Z,4.03
2018-09-20T15:48:01.261Z,4.77
2018-09-20T15:50:31.791Z,3.87
2018-09-20T15:53:01.591Z,6.20
2018-09-20T15:55:31.296Z,4.07
2018-09-20T15:58:01.037Z,4.37
2018-09-20T16:00:30.678Z,6.90
2018-09-20T16:03:00.384Z,3.87
2018-09-20T16:05:30.095Z,3.87
2018-09-20T16:07:59.852Z,3.60
2018-09-20T16:10:29.611Z,3.60
2018-09-20T16:12:59.331Z,3.80
2018-09-20T16:15:29.067Z,4.40
2018-09-20T16:17:59.014Z,4.03
2018-09-20T16:20:28.720Z,4.03
2018-09-20T16:22:58.551Z,3.90
2018-09-20T16:25:28.332Z,3.87
2018-09-20T16:28:10.446Z,4.00
2018-09-20T16:30:59.086Z,4.77
2018-09-20T16:33:53.111Z,4.13
2018-09-20T16:37:33.114Z,6.77
2018-09-20T16:40:03.975Z,3.97
2018-09-20T16:42:36.211Z,5.90
2018-09-20T16:45:06.186Z,4.33
2018-09-20T16:47:35.902Z,6.33
2018-09-20T16:50:05.621Z,4.53
2018-09-20T16:52:35.358Z,3.57
2018-09-20T16:55:05.191Z,4.13
2018-09-20T16:57:34.950Z,3.63
2018-09-20T17:00:06.302Z,4.70
2018-09-20T17:02:36.018Z,4.20
2018-09-20T17:05:05.739Z,4.37
2018-09-20T17:07:35.470Z,4.10
2018-09-20T17:10:05.585Z,3.90
2018-09-20T17:12:41.939Z,4.63
2018-09-20T17:15:11.803Z,7.73
2018-09-20T17:17:41.355Z,4.50
2018-09-20T17:20:11.074Z,5.67
2018-09-20T17:22:40.821Z,4.00
2018-09-20T17:25:10.555Z,3.93
2018-09-20T17:27:40.278Z,4.40
2018-09-20T17:30:09.977Z,6.50
2018-09-20T17:32:39.697Z,6.53
2018-09-20T17:35:09.740Z,5.47
2018-09-20T17:37:40.500Z,6.33
2018-09-20T17:40:10.976Z,4.70
2018-09-20T17:42:41.622Z,4.90
2018-09-20T17:45:11.359Z,5.70
2018-09-20T17:47:41.064Z,10.13
2018-09-20T17:50:10.799Z,9.03
2018-09-20T17:52:40.930Z,7.70
2018-09-20T17:55:11.097Z,8.90
2018-09-20T17:57:41.283Z,9.20
2018-09-20T18:00:11.090Z,7.43
2018-09-20T18:02:40.758Z,8.90
2018-09-20T18:05:11.255Z,8.30
2018-09-20T18:07:40.955Z,8.33
2018-09-20T18:10:10.668Z,7.70
2018-09-20T18:12:40.440Z,6.80
2018-09-20T18:15:10.275Z,6.40
2018-09-20T18:17:40.022Z,6.70
2018-09-20T18:20:09.850Z,6.33
2018-09-20T18:22:39.622Z,6.40
2018-09-20T18:25:09.366Z,7.03
2018-09-20T18:27:39.107Z,5.47
2018-09-20T18:30:08.891Z,5.10
2018-09-20T18:32:38.626Z,7.00
2018-09-20T18:35:08.381Z,6.43
2018-09-20T18:37:39.136Z,6.77
2018-09-20T18:40:08.847Z,6.17
2018-09-20T18:42:38.639Z,5.87
2018-09-20T18:45:08.351Z,6.20
2018-09-20T18:47:39.232Z,5.80
2018-09-20T18:50:09.104Z,6.00
2018-09-20T18:52:38.747Z,6.00
2018-09-20T18:55:08.528Z,6.57
2018-09-20T18:57:38.280Z,7.20
2018-09-20T19:00:08.074Z,14.60
2018-09-20T19:02:37.889Z,6.23
2018-09-20T19:05:07.651Z,8.20
2018-09-20T19:07:37.424Z,8.30
2018-09-20T19:10:07.168Z,13.40
2018-09-20T19:12:37.004Z,10.80
2018-09-20T19:15:08.458Z,11.47
2018-09-20T19:17:38.319Z,9.93
2018-09-20T19:20:08.585Z,10.07
2018-09-20T19:22:38.366Z,7.43
2018-09-20T19:25:08.272Z,7.50
2018-09-20T19:27:38.012Z,9.70
2018-09-20T19:30:07.926Z,6.70
2018-09-20T19:32:37.684Z,7.60
2018-09-20T19:35:07.459Z,7.60
2018-09-20T19:37:37.211Z,7.50
2018-09-20T19:40:06.930Z,7.40
2018-09-20T19:42:36.651Z,7.80
2018-09-20T19:45:06.699Z,6.97
2018-09-20T19:47:36.467Z,7.20
2018-09-20T19:50:06.734Z,6.67
2018-09-20T19:52:36.636Z,8.77
2018-09-20T19:55:06.721Z,6.73
2018-09-20T19:57:36.600Z,7.90
2018-09-20T20:00:06.385Z,7.03
2018-09-20T20:02:36.111Z,6.80
2018-09-20T20:05:05.907Z,7.47
2018-09-20T20:07:36.819Z,6.50
2018-09-20T20:10:06.575Z,7.37
2018-09-20T20:12:36.283Z,6.67
2018-09-20T20:15:06.702Z,7.53
2018-09-20T20:17:36.432Z,6.87
2018-09-20T20:20:06.324Z,8.07
2018-09-20T20:22:36.031Z,7.60
2018-09-20T20:25:05.788Z,8.90
2018-09-20T20:27:37.254Z,11.20
2018-09-20T20:30:07.047Z,7.10
2018-09-20T20:32:36.785Z,8.43
2018-09-20T20:35:07.074Z,8.50
2018-09-20T20:37:37.939Z,12.30
2018-09-20T20:40:07.668Z,9.93
2018-09-20T20:42:37.383Z,9.43
2018-09-20T20:45:07.168Z,9.73
2018-09-20T20:47:36.924Z,12.10
2018-09-20T20:50:06.815Z,8.07
2018-09-20T20:52:36.503Z,8.10
2018-09-20T20:55:06.244Z,9.80
2018-09-20T20:57:36.063Z,8.77
2018-09-20T21:00:06.077Z,8.00
2018-09-20T21:02:35.768Z,7.23
2018-09-20T21:05:06.056Z,7.72
2018-09-20T21:07:35.883Z,7.63
2018-09-20T21:10:05.696Z,8.37
2018-09-20T21:12:35.474Z,11.10
2018-09-20T21:15:05.310Z,6.63
2018-09-20T21:17:35.093Z,9.80
2018-09-20T21:20:06.065Z,9.80
2018-09-20T21:22:35.828Z,7.67
2018-09-20T21:25:05.572Z,8.30
2018-09-20T21:27:35.436Z,15.53
2018-09-20T21:30:05.271Z,7.90
2018-09-20T21:32:34.959Z,7.83
2018-09-20T21:35:05.787Z,7.53
2018-09-20T21:37:35.553Z,7.10
2018-09-20T21:40:05.384Z,11.80
2018-09-20T21:42:35.182Z,9.20
2018-09-20T21:45:04.998Z,6.83
2018-09-20T21:47:34.784Z,9.80
2018-09-20T21:50:04.590Z,8.43
2018-09-20T21:52:34.355Z,12.90
2018-09-20T21:55:04.079Z,8.97
2018-09-20T21:57:33.967Z,8.03
2018-09-20T22:00:04.216Z,7.93
2018-09-20T22:02:39.311Z,7.87
2018-09-20T22:05:09.022Z,7.53
2018-09-20T22:07:38.775Z,7.37
2018-09-20T22:10:08.495Z,8.13
2018-09-20T22:12:38.200Z,12.17
2018-09-20T22:15:15.286Z,8.97
2018-09-20T22:17:45.048Z,8.53
2018-09-20T22:20:14.836Z,7.70
2018-09-20T22:22:45.800Z,8.40
2018-09-20T22:25:15.503Z,8.60
2018-09-20T22:27:45.250Z,8.30
2018-09-20T22:30:15.301Z,7.87
2018-09-20T22:32:45.378Z,7.33
2018-09-20T22:35:15.132Z,6.90
2018-09-20T22:37:44.939Z,7.80
2018-09-20T22:40:14.739Z,7.00
2018-09-20T22:42:44.580Z,8.73
2018-09-20T22:45:14.308Z,11.60
2018-09-20T22:47:44.042Z,9.37
2018-09-20T22:50:13.750Z,9.50
2018-09-20T22:52:43.511Z,8.93
2018-09-20T22:55:13.222Z,5.80
2018-09-20T22:57:42.907Z,6.83
2018-09-20T23:00:12.771Z,7.60
2018-09-20T23:02:42.530Z,6.80
2018-09-20T23:05:12.265Z,6.63
2018-09-20T23:07:42.003Z,6.73
2018-09-20T23:10:11.754Z,6.50
2018-09-20T23:12:41.454Z,7.83
2018-09-20T23:15:11.350Z,6.77
2018-09-20T23:17:41.055Z,6.63
2018-09-20T23:20:10.754Z,9.27
2018-09-20T23:22:40.477Z,7.53
2018-09-20T23:25:10.179Z,6.90
2018-09-20T23:27:39.918Z,8.13
2018-09-20T23:30:09.626Z,6.33
2018-09-20T23:32:39.376Z,9.43
2018-09-20T23:35:09.082Z,6.37
2018-09-20T23:37:38.798Z,6.70
2018-09-20T23:40:08.539Z,7.33
2018-09-20T23:42:38.254Z,6.10
2018-09-20T23:45:08.084Z,11.03
2018-09-20T23:47:37.786Z,10.10
2018-09-20T23:50:07.530Z,6.27
2018-09-20T23:52:37.231Z,6.20
2018-09-20T23:55:06.971Z,6.97
2018-09-20T23:57:36.712Z,8.03
